createdAt,value
2018-03-18T00:00:37.729Z,56.10
2018-03-18T00:03:05.801Z,56.10
2018-03-18T00:05:33.384Z,56.50
2018-03-18T00:08:02.675Z,55.50
2018-03-18T00:10:30.538Z,55.10
2018-03-18T00:12:58.293Z,55.00
2018-03-18T00:15:26.163Z,54.50
2018-03-18T00:17:53.743Z,54.90
2018-03-18T00:20:21.538Z,55.10
2018-03-18T00:22:50.196Z,54.80
2018-03-18T00:25:19.699Z,54.80
2018-03-18T00:27:48.342Z,55.60
2018-03-18T00:30:16.534Z,54.80
2018-03-18T00:32:44.472Z,55.40
2018-03-18T00:35:15.910Z,55.70
2018-03-18T00:37:45.231Z,56.10
2018-03-18T00:40:12.837Z,55.80
2018-03-18T00:42:41.523Z,56.00
2018-03-18T00:45:10.186Z,56.00
2018-03-18T00:47:41.831Z,54.70
2018-03-18T00:50:10.159Z,54.50
2018-03-18T00:52:38.814Z,54.50
2018-03-18T00:55:07.808Z,53.70
2018-03-18T00:57:37.847Z,54.40
2018-03-18T01:00:08.968Z,54.00
2018-03-18T01:02:37.276Z,54.50
2018-03-18T01:05:10.109Z,55.50
2018-03-18T01:07:38.321Z,54.50
2018-03-18T01:10:10.507Z,55.30
2018-03-18T01:12:39.594Z,55.30
2018-03-18T01:15:08.612Z,54.20
2018-03-18T01:17:37.456Z,54.50
2018-03-18T01:20:07.748Z,54.90
2018-03-18T01:22:36.161Z,54.60
2018-03-18T01:25:05.414Z,54.50
2018-03-18T01:27:34.502Z,54.90
2018-03-18T01:30:02.309Z,54.80
2018-03-18T01:32:30.832Z,53.50
2018-03-18T01:34:58.448Z,55.10
2018-03-18T01:37:26.137Z,55.20
2018-03-18T01:39:53.694Z,54.40
2018-03-18T01:42:21.272Z,54.50
2018-03-18T01:44:49.935Z,54.50
2018-03-18T01:47:18.933Z,55.10
2018-03-18T01:49:46.436Z,54.80
2018-03-18T01:52:14.277Z,54.10
2018-03-18T01:54:41.897Z,54.60
2018-03-18T01:57:10.389Z,54.60
2018-03-18T01:59:39.307Z,54.50
2018-03-18T02:02:07.966Z,53.80
2018-03-18T02:04:35.581Z,54.20
2018-03-18T02:07:03.272Z,54.00
2018-03-18T02:09:33.011Z,54.60
2018-03-18T02:12:00.644Z,53.80
2018-03-18T02:14:28.398Z,54.30
2018-03-18T02:16:56.553Z,53.30
2018-03-18T02:19:25.828Z,54.80
2018-03-18T02:21:53.638Z,54.80
2018-03-18T02:24:22.950Z,54.60
2018-03-18T02:26:52.461Z,54.60
2018-03-18T02:29:20.688Z,54.00
2018-03-18T02:31:49.171Z,54.10
2018-03-18T02:34:17.608Z,53.60
2018-03-18T02:36:45.229Z,53.40
2018-03-18T02:39:13.910Z,52.70
2018-03-18T02:41:42.036Z,52.70
2018-03-18T02:44:09.666Z,53.80
2018-03-18T02:46:38.311Z,53.70
2018-03-18T02:49:06.286Z,54.20
2018-03-18T02:51:34.194Z,53.80
2018-03-18T02:54:02.588Z,53.80
2018-03-18T02:56:30.135Z,53.20
2018-03-18T02:58:58.540Z,53.40
2018-03-18T03:01:26.723Z,53.50
2018-03-18T03:03:54.265Z,53.40
2018-03-18T03:06:21.847Z,53.20
2018-03-18T03:08:49.420Z,53.10
2018-03-18T03:11:17.452Z,53.30
2018-03-18T03:13:45.031Z,52.80
2018-03-18T03:16:12.630Z,53.40
2018-03-18T03:18:40.181Z,53.30
2018-03-18T03:21:08.690Z,53.40
2018-03-18T03:23:37.644Z,53.60
2018-03-18T03:26:06.155Z,54.00
2018-03-18T03:28:33.702Z,53.40
2018-03-18T03:31:01.319Z,52.90
2018-03-18T03:33:28.903Z,53.10
2018-03-18T03:35:57.067Z,53.60
2018-03-18T03:38:24.674Z,53.50
2018-03-18T03:40:53.901Z,54.00
2018-03-18T03:43:22.235Z,54.00
2018-03-18T03:45:49.830Z,53.80
2018-03-18T03:48:18.120Z,53.60
2018-03-18T03:50:46.787Z,53.60
2018-03-18T03:53:15.158Z,54.00
2018-03-18T03:55:42.706Z,54.00
2018-03-18T03:58:10.926Z,53.60
2018-03-18T04:00:38.444Z,54.00
2018-03-18T04:03:06.601Z,53.30
2018-03-18T04:05:34.220Z,53.00
2018-03-18T04:08:02.321Z,53.60
2018-03-18T04:10:30.167Z,53.30
2018-03-18T04:12:58.840Z,52.70
2018-03-18T04:15:26.455Z,53.10
2018-03-18T04:17:54.789Z,53.00
2018-03-18T04:20:24.986Z,52.50
2018-03-18T04:22:52.591Z,52.50
2018-03-18T04:25:20.141Z,52.00
2018-03-18T04:27:48.605Z,52.20
2018-03-18T04:30:16.197Z,51.90
2018-03-18T04:32:43.834Z,52.50
2018-03-18T04:35:11.454Z,52.70
2018-03-18T04:37:39.802Z,52.10
2018-03-18T04:40:08.696Z,52.00
2018-03-18T04:42:36.964Z,51.90
2018-03-18T04:45:06.325Z,52.30
2018-03-18T04:47:33.899Z,52.20
2018-03-18T04:50:01.528Z,51.30
2018-03-18T04:52:29.099Z,52.10
2018-03-18T04:54:56.663Z,52.60
2018-03-18T04:57:24.268Z,52.30
2018-03-18T04:59:51.871Z,51.70
2018-03-18T05:02:20.726Z,51.90
2018-03-18T05:04:48.333Z,51.90
2018-03-18T05:07:16.368Z,52.30
2018-03-18T05:09:44.384Z,52.00
2018-03-18T05:12:12.555Z,51.60
2018-03-18T05:14:40.366Z,51.40
2018-03-18T05:17:09.252Z,51.80
2018-03-18T05:19:37.653Z,51.10
2018-03-18T05:22:05.228Z,51.60
2018-03-18T05:24:33.786Z,52.30
2018-03-18T05:27:01.395Z,52.30
2018-03-18T05:29:29.013Z,52.20
2018-03-18T05:31:58.008Z,51.70
2018-03-18T05:34:25.610Z,51.50
2018-03-18T05:36:54.439Z,50.90
2018-03-18T05:39:22.617Z,50.90
2018-03-18T05:41:50.701Z,50.40
2018-03-18T05:44:18.371Z,50.70
2018-03-18T05:46:47.041Z,50.50
2018-03-18T05:49:15.303Z,51.10
2018-03-18T05:51:42.852Z,51.60
2018-03-18T05:54:10.754Z,52.50
2018-03-18T05:56:39.311Z,51.90
2018-03-18T05:59:07.719Z,52.20
2018-03-18T06:01:35.445Z,51.40
2018-03-18T06:04:03.316Z,51.20
2018-03-18T06:06:31.117Z,50.90
2018-03-18T06:08:58.647Z,51.70
2018-03-18T06:11:27.131Z,51.50
2018-03-18T06:13:56.380Z,51.20
2018-03-18T06:16:24.010Z,51.20
2018-03-18T06:18:51.940Z,51.30
2018-03-18T06:21:19.545Z,51.10
2018-03-18T06:23:47.711Z,51.30
2018-03-18T06:26:15.688Z,50.80
2018-03-18T06:28:44.048Z,50.50
2018-03-18T06:31:12.123Z,50.00
2018-03-18T06:33:40.997Z,50.40
2018-03-18T06:36:09.276Z,50.70
2018-03-18T06:38:36.916Z,50.30
2018-03-18T06:41:04.599Z,49.80
2018-03-18T06:43:32.184Z,50.60
2018-03-18T06:46:00.093Z,50.10
2018-03-18T06:48:28.625Z,50.30
2018-03-18T06:50:57.239Z,50.20
2018-03-18T06:53:25.608Z,50.60
2018-03-18T06:55:54.094Z,51.10
2018-03-18T06:58:22.665Z,51.10
2018-03-18T07:00:50.223Z,51.50
2018-03-18T07:03:18.940Z,51.40
2018-03-18T07:05:48.449Z,50.60
2018-03-18T07:08:16.765Z,50.50
2018-03-18T07:10:45.259Z,50.50
2018-03-18T07:13:12.904Z,49.50
2018-03-18T07:15:41.321Z,50.90
2018-03-18T07:18:09.365Z,50.80
2018-03-18T07:20:37.176Z,50.50
2018-03-18T07:23:04.764Z,49.90
2018-03-18T07:25:32.462Z,49.70
2018-03-18T07:28:00.632Z,49.70
2018-03-18T07:30:29.103Z,49.80
2018-03-18T07:32:56.716Z,50.40
2018-03-18T07:35:24.577Z,49.70
2018-03-18T07:37:52.391Z,49.80
2018-03-18T07:40:19.958Z,50.40
2018-03-18T07:42:48.389Z,51.50
2018-03-18T07:45:16.130Z,50.60
2018-03-18T07:47:43.728Z,50.70
2018-03-18T07:52:46.746Z,50.90
2018-03-18T07:55:14.283Z,50.40
2018-03-18T07:57:42.605Z,51.20
2018-03-18T08:00:11.820Z,51.20
2018-03-18T08:02:39.422Z,50.70
2018-03-18T08:05:09.072Z,50.90
2018-03-18T08:07:36.699Z,50.90
2018-03-18T08:10:14.161Z,49.90
2018-03-18T08:12:41.979Z,50.00
2018-03-18T08:15:11.080Z,50.40
2018-03-18T08:17:38.708Z,51.00
2018-03-18T08:20:09.740Z,50.90
2018-03-18T08:22:37.758Z,50.90
2018-03-18T08:25:09.375Z,49.10
2018-03-18T08:27:36.927Z,49.10
2018-03-18T08:30:07.391Z,48.90
2018-03-18T08:32:35.029Z,48.90
2018-03-18T08:35:03.652Z,48.70
2018-03-18T08:37:32.403Z,49.30
2018-03-18T08:39:59.958Z,48.70
2018-03-18T08:42:31.216Z,49.60
2018-03-18T08:44:58.786Z,49.60
2018-03-18T08:47:26.341Z,50.00
2018-03-18T08:49:53.912Z,49.00
2018-03-18T08:52:21.564Z,48.80
2018-03-18T08:54:49.157Z,48.80
2018-03-18T08:57:16.763Z,48.40
2018-03-18T08:59:45.180Z,48.80
2018-03-18T09:02:12.805Z,48.00
2018-03-18T09:04:41.233Z,49.00
2018-03-18T09:07:08.832Z,48.40
2018-03-18T09:09:36.743Z,49.00
2018-03-18T09:12:04.335Z,49.30
2018-03-18T09:14:32.305Z,48.50
2018-03-18T09:17:00.909Z,48.00
2018-03-18T09:19:28.552Z,47.50
2018-03-18T09:21:56.126Z,47.90
2018-03-18T09:24:23.703Z,47.60
2018-03-18T09:26:52.098Z,48.00
2018-03-18T09:29:19.709Z,48.00
2018-03-18T09:31:47.848Z,47.70
2018-03-18T09:34:16.961Z,47.50
2018-03-18T09:36:44.528Z,48.10
2018-03-18T09:39:12.745Z,48.50
2018-03-18T09:41:40.310Z,49.40
2018-03-18T09:44:08.702Z,48.00
2018-03-18T09:46:36.909Z,48.30
2018-03-18T09:49:04.967Z,48.00
2018-03-18T09:51:32.752Z,49.20
2018-03-18T09:54:00.928Z,48.30
2018-03-18T09:56:29.959Z,48.80
2018-03-18T09:58:58.181Z,49.20
2018-03-18T10:01:25.709Z,49.70
2018-03-18T10:03:54.664Z,48.80
2018-03-18T10:06:22.972Z,48.80
2018-03-18T10:08:51.367Z,49.70
2018-03-18T10:11:20.644Z,48.90
2018-03-18T10:13:49.011Z,48.90
2018-03-18T10:16:16.631Z,48.70
2018-03-18T10:18:45.171Z,48.40
2018-03-18T10:21:13.536Z,49.10
2018-03-18T10:23:41.900Z,49.00
2018-03-18T10:26:09.514Z,49.00
2018-03-18T10:28:37.178Z,48.80
2018-03-18T10:31:04.861Z,48.70
2018-03-18T10:33:33.087Z,48.30
2018-03-18T10:36:00.699Z,48.30
2018-03-18T10:38:29.010Z,48.40
2018-03-18T10:40:57.578Z,47.30
2018-03-18T10:43:25.471Z,48.10
2018-03-18T10:45:53.012Z,47.60
2018-03-18T10:48:20.590Z,48.90
2018-03-18T10:50:48.208Z,49.70
2018-03-18T10:53:15.757Z,49.70
2018-03-18T10:55:44.085Z,48.70
2018-03-18T10:58:11.739Z,48.50
2018-03-18T11:00:44.126Z,48.60
2018-03-18T11:03:12.268Z,48.60
2018-03-18T11:05:39.912Z,48.80
2018-03-18T11:08:08.082Z,49.30
2018-03-18T11:10:36.485Z,48.90
2018-03-18T11:13:04.138Z,48.10
2018-03-18T11:15:31.718Z,48.60
2018-03-18T11:17:59.341Z,49.00
2018-03-18T11:20:28.831Z,48.90
2018-03-18T11:22:58.976Z,47.70
2018-03-18T11:25:27.966Z,47.70
2018-03-18T11:27:55.543Z,47.70
2018-03-18T11:30:23.652Z,48.60
2018-03-18T11:32:52.023Z,46.90
2018-03-18T11:35:20.057Z,46.90
2018-03-18T11:37:48.796Z,47.50
2018-03-18T11:40:16.342Z,47.50
2018-03-18T11:42:43.929Z,46.80
2018-03-18T11:45:12.575Z,47.20
2018-03-18T11:47:41.079Z,47.20
2018-03-18T11:50:12.917Z,48.40
2018-03-18T11:52:40.577Z,48.40
2018-03-18T11:55:09.454Z,47.20
2018-03-18T11:57:37.748Z,47.60
2018-03-18T12:00:08.183Z,47.90
2018-03-18T12:02:35.739Z,47.00
2018-03-18T12:05:06.995Z,47.60
2018-03-18T12:07:34.591Z,47.00
2018-03-18T12:10:02.261Z,47.10
2018-03-18T12:12:30.204Z,48.00
2018-03-18T12:14:58.671Z,47.80
2018-03-18T12:17:26.279Z,47.70
2018-03-18T12:19:53.925Z,48.50
2018-03-18T12:22:21.836Z,47.60
2018-03-18T12:24:50.213Z,47.80
2018-03-18T12:27:17.947Z,47.70
2018-03-18T12:29:46.769Z,47.10
2018-03-18T12:32:14.421Z,47.30
2018-03-18T12:34:43.135Z,46.50
2018-03-18T12:37:10.904Z,47.70
2018-03-18T12:39:50.311Z,47.30
2018-03-18T12:42:29.626Z,47.00
2018-03-18T12:44:57.562Z,47.50
2018-03-18T12:47:25.193Z,47.60
2018-03-18T12:49:52.763Z,48.00
2018-03-18T12:52:20.620Z,47.70
2018-03-18T12:54:49.021Z,46.80
2018-03-18T12:57:18.961Z,46.80
2018-03-18T12:59:48.072Z,47.00
2018-03-18T13:02:16.121Z,47.50
2018-03-18T13:04:45.235Z,47.20
2018-03-18T13:07:12.895Z,47.20
2018-03-18T13:09:40.527Z,47.60
2018-03-18T13:12:08.892Z,48.00
2018-03-18T13:14:37.342Z,47.40
2018-03-18T13:17:04.932Z,47.30
2018-03-18T13:19:32.492Z,47.80
2018-03-18T13:22:00.110Z,47.50
2018-03-18T13:24:29.163Z,47.40
2018-03-18T13:26:56.703Z,47.00
2018-03-18T13:29:24.918Z,47.50
2018-03-18T13:31:52.482Z,47.30
2018-03-18T13:34:20.707Z,47.70
2018-03-18T13:36:49.523Z,47.60
2018-03-18T13:39:18.254Z,48.30
2018-03-18T13:41:46.164Z,47.80
2018-03-18T13:44:14.064Z,47.90
2018-03-18T13:46:42.524Z,47.60
2018-03-18T13:49:10.140Z,47.50
2018-03-18T13:51:37.842Z,48.00
2018-03-18T13:54:05.413Z,47.60
2018-03-18T13:56:33.066Z,48.30
2018-03-18T13:59:01.025Z,47.40
2018-03-18T14:01:28.734Z,47.50
2018-03-18T14:03:57.870Z,47.40
2018-03-18T14:06:28.699Z,47.40
2018-03-18T14:08:56.262Z,47.00
2018-03-18T14:11:24.563Z,47.80
2018-03-18T14:13:52.188Z,47.20
2018-03-18T14:16:19.762Z,46.70
2018-03-18T14:18:48.156Z,47.20
2018-03-18T14:21:16.185Z,47.10
2018-03-18T14:23:43.742Z,46.40
2018-03-18T14:26:11.313Z,47.00
2018-03-18T14:28:39.415Z,47.30
2018-03-18T14:31:07.770Z,47.20
2018-03-18T14:43:20.415Z,47.90
2018-03-18T14:45:48.957Z,48.30
2018-03-18T14:48:17.104Z,48.40
2018-03-18T14:50:44.902Z,48.50
2018-03-18T14:53:13.080Z,48.30
2018-03-18T14:55:40.650Z,48.00
2018-03-18T14:58:09.698Z,47.40
2018-03-18T15:00:37.905Z,47.60
2018-03-18T15:03:08.855Z,47.70
2018-03-18T15:05:37.116Z,47.80
2018-03-18T15:08:05.055Z,47.70
2018-03-18T15:10:32.710Z,47.80
2018-03-18T15:13:00.274Z,47.60
2018-03-18T15:15:28.928Z,47.40
2018-03-18T15:17:56.686Z,47.90
2018-03-18T15:20:24.527Z,48.00
2018-03-18T15:22:53.001Z,48.00
2018-03-18T15:25:20.561Z,48.20
2018-03-18T15:27:49.612Z,48.50
2018-03-18T15:30:18.073Z,47.60
2018-03-18T15:32:46.669Z,48.10
2018-03-18T15:35:14.611Z,48.10
2018-03-18T15:37:42.209Z,47.80
2018-03-18T15:40:11.331Z,47.90
2018-03-18T15:42:39.051Z,47.80
2018-03-18T15:45:07.282Z,48.20
2018-03-18T15:47:35.447Z,47.70
2018-03-18T15:50:03.369Z,46.80
2018-03-18T15:52:31.706Z,47.40
2018-03-18T15:54:59.289Z,47.20
2018-03-18T15:57:28.602Z,47.70
2018-03-18T15:59:56.174Z,47.70
2018-03-18T16:02:23.721Z,47.10
2018-03-18T16:04:51.607Z,47.50
2018-03-18T16:07:20.418Z,48.00
2018-03-18T16:09:47.994Z,47.50
2018-03-18T16:12:15.690Z,47.90
2018-03-18T16:14:45.319Z,47.80
2018-03-18T16:17:12.896Z,47.20
2018-03-18T16:19:42.769Z,47.80
2018-03-18T16:22:11.009Z,48.00
2018-03-18T16:24:39.832Z,47.90
2018-03-18T16:27:09.434Z,48.00
2018-03-18T16:29:49.107Z,47.90
2018-03-18T16:32:18.915Z,48.30
2018-03-18T16:34:48.017Z,48.50
2018-03-18T16:50:11.835Z,48.00
2018-03-18T16:52:40.026Z,48.90
2018-03-18T16:55:10.333Z,49.40
2018-03-18T16:57:38.474Z,48.70
2018-03-18T17:00:07.734Z,48.40
2018-03-18T17:02:36.196Z,48.40
2018-03-18T17:05:06.293Z,47.80
2018-03-18T17:07:34.424Z,48.30
2018-03-18T17:10:03.395Z,47.60
2018-03-18T17:12:32.939Z,47.30
2018-03-18T17:15:03.781Z,46.90
2018-03-18T17:17:32.346Z,47.00
2018-03-18T17:20:02.267Z,47.00
2018-03-18T17:22:31.447Z,46.80
2018-03-18T17:25:02.031Z,46.90
2018-03-18T17:27:32.520Z,47.50
2018-03-18T17:30:01.259Z,47.70
2018-03-18T17:32:31.434Z,47.40
2018-03-18T17:35:00.540Z,47.50
2018-03-18T17:37:28.863Z,47.40
2018-03-18T17:39:58.230Z,47.40
2018-03-18T17:42:28.490Z,47.60
2018-03-18T17:45:08.824Z,47.00
2018-03-18T17:47:52.639Z,47.20
2018-03-18T17:50:32.135Z,47.10
2018-03-18T17:53:12.491Z,47.30
2018-03-18T17:55:41.893Z,47.40
2018-03-18T17:58:11.361Z,47.70
2018-03-18T18:00:41.132Z,47.30
2018-03-18T18:03:09.173Z,47.40
2018-03-18T18:05:38.026Z,47.60
2018-03-18T18:08:07.108Z,47.30
2018-03-18T18:10:35.561Z,47.20
2018-03-18T18:13:06.227Z,48.10
2018-03-18T18:15:34.344Z,48.20
2018-03-18T18:18:02.835Z,48.80
2018-03-18T18:20:32.343Z,48.40
2018-03-18T18:23:00.023Z,48.40
2018-03-18T18:25:27.792Z,48.60
2018-03-18T18:27:58.327Z,48.20
2018-03-18T18:30:25.892Z,48.20
2018-03-18T18:32:54.342Z,47.90
2018-03-18T18:35:24.421Z,47.20
2018-03-18T18:37:54.245Z,47.90
2018-03-18T18:40:24.174Z,48.20
2018-03-18T18:42:52.358Z,48.20
2018-03-18T18:45:23.778Z,48.40
2018-03-18T18:47:52.912Z,47.70
2018-03-18T18:50:22.805Z,47.70
2018-03-18T18:52:51.939Z,48.20
2018-03-18T18:55:21.927Z,48.10
2018-03-18T18:57:50.243Z,48.50
2018-03-18T19:00:19.731Z,47.90
2018-03-18T19:02:47.746Z,47.80
2018-03-18T19:05:17.197Z,47.10
2018-03-18T19:07:45.730Z,47.10
2018-03-18T19:10:13.875Z,47.60
2018-03-18T19:12:41.939Z,47.40
2018-03-18T19:15:09.517Z,47.00
2018-03-18T19:17:38.271Z,47.10
2018-03-18T19:20:07.440Z,47.50
2018-03-18T19:22:38.654Z,47.00
2018-03-18T19:25:08.232Z,47.00
2018-03-18T19:27:36.392Z,46.40
2018-03-18T19:30:06.546Z,47.30
2018-03-18T19:32:36.158Z,46.40
2018-03-18T19:35:04.536Z,46.40
2018-03-18T19:37:33.469Z,46.50
2018-03-18T19:40:02.579Z,46.90
2018-03-18T19:42:32.674Z,47.50
2018-03-18T19:45:01.102Z,46.60
2018-03-18T19:47:31.116Z,46.60
2018-03-18T19:50:00.397Z,46.80
2018-03-18T19:52:29.249Z,46.70
2018-03-18T19:54:58.757Z,46.90
2018-03-18T19:57:29.318Z,46.60
2018-03-18T19:59:58.793Z,47.00
2018-03-18T20:02:29.564Z,47.00
2018-03-18T20:04:59.567Z,47.70
2018-03-18T20:07:28.839Z,47.20
2018-03-18T20:09:57.777Z,47.30
2018-03-18T20:12:26.319Z,47.60
2018-03-18T20:14:56.394Z,47.40
2018-03-18T20:17:26.205Z,47.40
2018-03-18T20:19:54.849Z,47.30
2018-03-18T20:22:25.268Z,46.80
2018-03-18T20:24:53.704Z,46.60
2018-03-18T20:27:23.102Z,46.80
2018-03-18T20:29:50.737Z,47.50
2018-03-18T20:32:19.606Z,47.40
2018-03-18T20:34:49.484Z,47.40
2018-03-18T20:37:18.847Z,47.70
2018-03-18T20:39:47.513Z,47.30
2018-03-18T20:42:16.897Z,47.70
2018-03-18T20:44:46.970Z,47.40
2018-03-18T20:47:15.317Z,47.40
2018-03-18T20:49:43.221Z,47.80
2018-03-18T20:52:11.993Z,47.90
2018-03-18T20:54:40.517Z,47.50
2018-03-18T20:57:08.498Z,48.00
2018-03-18T20:59:38.319Z,47.80
2018-03-18T21:02:07.792Z,48.00
2018-03-18T21:04:37.875Z,48.40
2018-03-18T21:07:07.404Z,48.40
2018-03-18T21:09:36.075Z,48.20
2018-03-18T21:12:05.899Z,48.60
2018-03-18T21:14:37.359Z,48.50
2018-03-18T21:17:06.361Z,48.60
2018-03-18T21:19:34.667Z,48.40
2018-03-18T21:22:02.298Z,48.20
2018-03-18T21:24:32.144Z,48.20
2018-03-18T21:27:00.451Z,48.50
2018-03-18T21:29:30.057Z,48.20
2018-03-18T21:32:01.173Z,48.40
2018-03-18T21:34:38.589Z,48.40
2018-03-18T21:37:08.207Z,48.00
2018-03-18T21:39:37.880Z,48.10
2018-03-18T21:42:07.230Z,47.60
2018-03-18T21:44:35.263Z,47.10
2018-03-18T21:47:03.922Z,47.10
2018-03-18T21:49:34.071Z,46.90
2018-03-18T21:52:02.649Z,46.80
2018-03-18T21:54:31.332Z,47.20
2018-03-18T21:57:02.278Z,48.50
2018-03-18T21:59:32.035Z,48.50
2018-03-18T22:02:00.824Z,48.60
2018-03-18T22:04:28.733Z,48.30
2018-03-18T22:06:57.559Z,47.30
2018-03-18T22:09:27.391Z,47.30
2018-03-18T22:11:57.795Z,47.40
2018-03-18T22:14:28.460Z,47.70
2018-03-18T22:16:57.465Z,47.20
2018-03-18T22:19:26.822Z,47.50
2018-03-18T22:21:56.092Z,46.60
2018-03-18T22:24:26.061Z,46.60
2018-03-18T22:26:54.994Z,46.60
2018-03-18T22:29:25.602Z,46.60
2018-03-18T22:31:54.294Z,47.30
2018-03-18T22:34:24.142Z,47.70
2018-03-18T22:46:32.982Z,48.00
2018-03-18T22:49:01.279Z,47.40
2018-03-18T22:51:29.813Z,47.20
2018-03-18T22:53:58.347Z,47.80
2018-03-18T22:56:28.664Z,47.90
2018-03-18T22:58:58.219Z,47.90
2018-03-18T23:01:26.901Z,46.90
2018-03-18T23:03:55.234Z,46.90
2018-03-18T23:06:25.727Z,46.70
2018-03-18T23:08:54.769Z,46.50
2018-03-18T23:11:23.258Z,45.80
2018-03-18T23:13:53.756Z,46.10
2018-03-18T23:16:23.170Z,47.00
2018-03-18T23:18:51.252Z,47.20
2018-03-18T23:21:20.519Z,46.70
2018-03-18T23:23:48.696Z,46.20
2018-03-18T23:26:19.434Z,46.00
2018-03-18T23:28:48.681Z,46.50
2018-03-18T23:31:18.632Z,46.80
2018-03-18T23:33:50.108Z,46.80
2018-03-18T23:36:18.914Z,46.80
2018-03-18T23:38:48.163Z,46.40
2018-03-18T23:41:18.298Z,47.30
2018-03-18T23:43:47.732Z,47.30
2018-03-18T23:46:16.215Z,46.80
2018-03-18T23:48:45.742Z,46.70
2018-03-18T23:51:14.377Z,47.40
2018-03-18T23:53:44.299Z,47.30
2018-03-18T23:56:13.489Z,47.20
2018-03-18T23:58:42.988Z,47.50
